sensor_id;sensor_type;location;lat;lon;timestamp;temperature;humidity
12926;DHT22;6529;50.566;9.774;2024-03-29T00:01:44;7.30;1.00
12926;DHT22;6529;50.566;9.774;2024-03-29T00:04:10;7.30;1.00
12926;DHT22;6529;50.566;9.774;2024-03-29T00:06:35;7.30;1.00
12926;DHT22;6529;50.566;9.774;2024-03-29T00:09:01;7.40;1.00
12926;DHT22;6529;50.566;9.774;2024-03-29T00:11:27;7.40;1.00
12926;DHT22;6529;50.566;9.774;2024-03-29T00:13:52;7.40;1.00
12926;DHT22;6529;50.566;9.774;2024-03-29T00:16:18;7.40;1.00
12926;DHT22;6529;50.566;9.774;2024-03-29T00:18:44;7.40;1.00
12926;DHT22;6529;50.566;9.774;2024-03-29T00:21:10;7.40;1.00
12926;DHT22;6529;50.566;9.774;2024-03-29T00:23:49;7.40;1.00
12926;DHT22;6529;50.566;9.774;2024-03-29T00:26:16;7.50;1.00
12926;DHT22;6529;50.566;9.774;2024-03-29T00:28:42;7.50;1.00
12926;DHT22;6529;50.566;9.774;2024-03-29T00:31:08;7.50;1.00
12926;DHT22;6529;50.566;9.774;2024-03-29T00:33:33;7.40;1.00
12926;DHT22;6529;50.566;9.774;2024-03-29T00:35:59;7.40;1.00
12926;DHT22;6529;50.566;9.774;2024-03-29T00:38:25;7.40;1.00
12926;DHT22;6529;50.566;9.774;2024-03-29T00:40:50;7.30;1.00
12926;DHT22;6529;50.566;9.774;2024-03-29T00:43:16;7.30;1.00
12926;DHT22;6529;50.566;9.774;2024-03-29T00:45:42;7.20;1.00
12926;DHT22;6529;50.566;9.774;2024-03-29T00:48:07;7.20;1.00
12926;DHT22;6529;50.566;9.774;2024-03-29T00:50:33;7.20;1.00
12926;DHT22;6529;50.566;9.774;2024-03-29T00:52:59;7.30;1.00
12926;DHT22;6529;50.566;9.774;2024-03-29T00:55:25;7.30;1.00
12926;DHT22;6529;50.566;9.774;2024-03-29T00:57:50;7.30;99.90
12926;DHT22;6529;50.566;9.774;2024-03-29T01:00:16;7.30;99.90
12926;DHT22;6529;50.566;9.774;2024-03-29T01:02:42;7.40;99.90
12926;DHT22;6529;50.566;9.774;2024-03-29T01:05:07;7.40;99.90
12926;DHT22;6529;50.566;9.774;2024-03-29T01:07:33;7.40;99.90
12926;DHT22;6529;50.566;9.774;2024-03-29T01:10:00;7.40;99.90
12926;DHT22;6529;50.566;9.774;2024-03-29T01:12:25;7.40;99.90
12926;DHT22;6529;50.566;9.774;2024-03-29T01:14:51;7.50;99.90
12926;DHT22;6529;50.566;9.774;2024-03-29T01:17:17;7.50;99.90
12926;DHT22;6529;50.566;9.774;2024-03-29T01:19:43;7.50;99.90
12926;DHT22;6529;50.566;9.774;2024-03-29T01:22:09;7.60;99.90
12926;DHT22;6529;50.566;9.774;2024-03-29T01:24:34;7.70;82.00
12926;DHT22;6529;50.566;9.774;2024-03-29T01:27:00;7.80;15.30
12926;DHT22;6529;50.566;9.774;2024-03-29T01:29:27;7.80;55.20
12926;DHT22;6529;50.566;9.774;2024-03-29T01:31:52;7.80;1.00
12926;DHT22;6529;50.566;9.774;2024-03-29T01:34:18;7.80;28.20
12926;DHT22;6529;50.566;9.774;2024-03-29T01:36:43;7.80;1.00
12926;DHT22;6529;50.566;9.774;2024-03-29T01:39:09;7.80;1.00
12926;DHT22;6529;50.566;9.774;2024-03-29T01:41:39;7.80;1.00
12926;DHT22;6529;50.566;9.774;2024-03-29T01:44:04;8.00;1.00
12926;DHT22;6529;50.566;9.774;2024-03-29T01:46:31;8.00;1.00
12926;DHT22;6529;50.566;9.774;2024-03-29T01:49:00;8.00;1.00
12926;DHT22;6529;50.566;9.774;2024-03-29T01:51:26;8.00;1.00
12926;DHT22;6529;50.566;9.774;2024-03-29T01:53:55;8.00;1.00
12926;DHT22;6529;50.566;9.774;2024-03-29T01:56:22;8.00;1.00
12926;DHT22;6529;50.566;9.774;2024-03-29T01:58:50;8.00;1.00
12926;DHT22;6529;50.566;9.774;2024-03-29T02:01:16;8.10;1.00
12926;DHT22;6529;50.566;9.774;2024-03-29T02:03:43;8.20;1.00
12926;DHT22;6529;50.566;9.774;2024-03-29T02:06:09;8.20;1.00
12926;DHT22;6529;50.566;9.774;2024-03-29T02:08:36;8.30;1.00
12926;DHT22;6529;50.566;9.774;2024-03-29T02:11:03;8.40;1.00
12926;DHT22;6529;50.566;9.774;2024-03-29T02:13:29;8.50;1.00
12926;DHT22;6529;50.566;9.774;2024-03-29T02:15:54;8.60;99.90
12926;DHT22;6529;50.566;9.774;2024-03-29T02:18:20;8.60;99.90
12926;DHT22;6529;50.566;9.774;2024-03-29T02:20:46;8.70;99.90
12926;DHT22;6529;50.566;9.774;2024-03-29T02:23:15;8.70;99.90
12926;DHT22;6529;50.566;9.774;2024-03-29T02:25:41;8.80;99.90
12926;DHT22;6529;50.566;9.774;2024-03-29T02:28:07;8.80;99.90
12926;DHT22;6529;50.566;9.774;2024-03-29T02:30:33;8.80;99.90
12926;DHT22;6529;50.566;9.774;2024-03-29T02:32:59;8.80;99.90
12926;DHT22;6529;50.566;9.774;2024-03-29T02:35:25;8.80;99.90
12926;DHT22;6529;50.566;9.774;2024-03-29T02:37:51;8.80;99.90
12926;DHT22;6529;50.566;9.774;2024-03-29T02:40:18;8.80;99.90
12926;DHT22;6529;50.566;9.774;2024-03-29T02:42:43;8.90;99.90
12926;DHT22;6529;50.566;9.774;2024-03-29T02:45:09;8.80;99.90
12926;DHT22;6529;50.566;9.774;2024-03-29T02:47:35;8.70;99.90
12926;DHT22;6529;50.566;9.774;2024-03-29T02:50:00;8.60;1.00
12926;DHT22;6529;50.566;9.774;2024-03-29T02:52:26;8.50;1.00
12926;DHT22;6529;50.566;9.774;2024-03-29T02:54:52;8.50;1.00
12926;DHT22;6529;50.566;9.774;2024-03-29T02:57:18;8.40;1.00
12926;DHT22;6529;50.566;9.774;2024-03-29T02:59:43;8.40;1.00
12926;DHT22;6529;50.566;9.774;2024-03-29T03:02:09;8.40;1.00
12926;DHT22;6529;50.566;9.774;2024-03-29T03:04:34;8.30;1.00
12926;DHT22;6529;50.566;9.774;2024-03-29T03:07:00;8.50;1.00
12926;DHT22;6529;50.566;9.774;2024-03-29T03:10:06;8.40;1.00
12926;DHT22;6529;50.566;9.774;2024-03-29T03:12:51;8.50;1.00
12926;DHT22;6529;50.566;9.774;2024-03-29T03:15:16;8.60;99.90
12926;DHT22;6529;50.566;9.774;2024-03-29T03:17:42;8.80;99.90
12926;DHT22;6529;50.566;9.774;2024-03-29T03:20:07;8.70;99.90
12926;DHT22;6529;50.566;9.774;2024-03-29T03:22:34;8.70;99.90
12926;DHT22;6529;50.566;9.774;2024-03-29T03:25:00;8.70;99.90
12926;DHT22;6529;50.566;9.774;2024-03-29T03:27:25;8.70;99.90
12926;DHT22;6529;50.566;9.774;2024-03-29T03:29:51;8.80;99.90
12926;DHT22;6529;50.566;9.774;2024-03-29T03:32:16;8.70;99.90
12926;DHT22;6529;50.566;9.774;2024-03-29T03:34:42;8.70;99.90
12926;DHT22;6529;50.566;9.774;2024-03-29T03:37:08;8.70;99.90
12926;DHT22;6529;50.566;9.774;2024-03-29T03:39:33;8.70;99.90
12926;DHT22;6529;50.566;9.774;2024-03-29T03:41:59;8.70;99.90
12926;DHT22;6529;50.566;9.774;2024-03-29T03:44:24;8.60;99.90
12926;DHT22;6529;50.566;9.774;2024-03-29T03:46:51;8.70;99.90
12926;DHT22;6529;50.566;9.774;2024-03-29T03:49:17;8.60;99.90
12926;DHT22;6529;50.566;9.774;2024-03-29T03:51:42;8.60;99.90
12926;DHT22;6529;50.566;9.774;2024-03-29T03:54:08;8.70;99.90
12926;DHT22;6529;50.566;9.774;2024-03-29T03:56:33;8.70;99.90
12926;DHT22;6529;50.566;9.774;2024-03-29T03:58:59;8.70;99.90
12926;DHT22;6529;50.566;9.774;2024-03-29T04:01:25;8.80;99.90
12926;DHT22;6529;50.566;9.774;2024-03-29T04:03:50;8.90;99.90
12926;DHT22;6529;50.566;9.774;2024-03-29T04:06:16;8.90;99.90
12926;DHT22;6529;50.566;9.774;2024-03-29T04:08:44;9.00;99.90
12926;DHT22;6529;50.566;9.774;2024-03-29T04:11:09;9.00;99.90
12926;DHT22;6529;50.566;9.774;2024-03-29T04:13:35;9.10;99.90
12926;DHT22;6529;50.566;9.774;2024-03-29T04:16:05;9.10;99.90
12926;DHT22;6529;50.566;9.774;2024-03-29T04:18:34;9.10;99.90
12926;DHT22;6529;50.566;9.774;2024-03-29T04:21:01;9.00;1.00
12926;DHT22;6529;50.566;9.774;2024-03-29T04:23:27;8.90;1.00
12926;DHT22;6529;50.566;9.774;2024-03-29T04:25:54;8.70;1.00
12926;DHT22;6529;50.566;9.774;2024-03-29T04:28:19;8.50;1.00
12926;DHT22;6529;50.566;9.774;2024-03-29T04:30:58;8.50;1.00
12926;DHT22;6529;50.566;9.774;2024-03-29T04:33:25;8.30;99.90
12926;DHT22;6529;50.566;9.774;2024-03-29T04:36:03;8.20;1.00
12926;DHT22;6529;50.566;9.774;2024-03-29T04:38:29;8.20;1.00
12926;DHT22;6529;50.566;9.774;2024-03-29T04:40:57;8.10;99.90
12926;DHT22;6529;50.566;9.774;2024-03-29T04:43:24;8.10;1.00
12926;DHT22;6529;50.566;9.774;2024-03-29T04:45:50;8.00;1.00
12926;DHT22;6529;50.566;9.774;2024-03-29T04:48:15;8.00;1.00
12926;DHT22;6529;50.566;9.774;2024-03-29T04:50:41;8.00;1.00
12926;DHT22;6529;50.566;9.774;2024-03-29T04:53:07;8.00;1.00
12926;DHT22;6529;50.566;9.774;2024-03-29T04:55:34;8.00;17.60
12926;DHT22;6529;50.566;9.774;2024-03-29T04:58:00;8.00;99.90
12926;DHT22;6529;50.566;9.774;2024-03-29T05:00:25;7.90;1.00
12926;DHT22;6529;50.566;9.774;2024-03-29T05:02:51;8.00;99.90
12926;DHT22;6529;50.566;9.774;2024-03-29T05:05:16;7.90;1.00
12926;DHT22;6529;50.566;9.774;2024-03-29T05:07:42;7.90;1.00
12926;DHT22;6529;50.566;9.774;2024-03-29T05:10:08;7.80;99.90
12926;DHT22;6529;50.566;9.774;2024-03-29T05:12:35;7.80;99.90
12926;DHT22;6529;50.566;9.774;2024-03-29T05:15:01;7.80;1.00
12926;DHT22;6529;50.566;9.774;2024-03-29T05:17:26;7.80;99.90
12926;DHT22;6529;50.566;9.774;2024-03-29T05:19:53;7.80;1.00
12926;DHT22;6529;50.566;9.774;2024-03-29T05:22:19;7.90;99.90
12926;DHT22;6529;50.566;9.774;2024-03-29T05:24:44;8.00;1.00
12926;DHT22;6529;50.566;9.774;2024-03-29T05:27:11;8.00;1.00
12926;DHT22;6529;50.566;9.774;2024-03-29T05:29:37;7.90;1.00
12926;DHT22;6529;50.566;9.774;2024-03-29T05:32:04;7.80;1.00
12926;DHT22;6529;50.566;9.774;2024-03-29T05:34:29;7.80;59.20
12926;DHT22;6529;50.566;9.774;2024-03-29T05:36:55;7.80;17.80
12926;DHT22;6529;50.566;9.774;2024-03-29T05:39:20;7.80;99.90
12926;DHT22;6529;50.566;9.774;2024-03-29T05:41:46;7.80;99.90
12926;DHT22;6529;50.566;9.774;2024-03-29T05:44:12;7.80;99.90
12926;DHT22;6529;50.566;9.774;2024-03-29T05:46:38;7.80;99.90
12926;DHT22;6529;50.566;9.774;2024-03-29T05:49:04;7.80;99.90
12926;DHT22;6529;50.566;9.774;2024-03-29T05:51:30;7.80;99.90
12926;DHT22;6529;50.566;9.774;2024-03-29T05:53:55;7.70;99.90
12926;DHT22;6529;50.566;9.774;2024-03-29T05:56:21;7.80;99.90
12926;DHT22;6529;50.566;9.774;2024-03-29T05:58:47;7.90;1.00
12926;DHT22;6529;50.566;9.774;2024-03-29T06:01:13;8.00;1.00
12926;DHT22;6529;50.566;9.774;2024-03-29T06:03:38;8.20;58.20
12926;DHT22;6529;50.566;9.774;2024-03-29T06:06:04;8.20;1.00
12926;DHT22;6529;50.566;9.774;2024-03-29T06:08:30;8.20;99.90
12926;DHT22;6529;50.566;9.774;2024-03-29T06:10:55;8.30;99.90
12926;DHT22;6529;50.566;9.774;2024-03-29T06:13:22;8.30;1.00
12926;DHT22;6529;50.566;9.774;2024-03-29T06:16:06;8.20;1.00
12926;DHT22;6529;50.566;9.774;2024-03-29T06:18:50;8.10;39.50
12926;DHT22;6529;50.566;9.774;2024-03-29T06:21:16;8.10;13.90
12926;DHT22;6529;50.566;9.774;2024-03-29T06:23:41;8.00;99.90
12926;DHT22;6529;50.566;9.774;2024-03-29T06:26:07;7.90;1.00
12926;DHT22;6529;50.566;9.774;2024-03-29T06:28:32;7.90;1.00
12926;DHT22;6529;50.566;9.774;2024-03-29T06:30:58;7.90;1.00
12926;DHT22;6529;50.566;9.774;2024-03-29T06:33:25;7.90;96.10
12926;DHT22;6529;50.566;9.774;2024-03-29T06:35:55;8.00;99.90
12926;DHT22;6529;50.566;9.774;2024-03-29T06:38:20;7.90;99.90
12926;DHT22;6529;50.566;9.774;2024-03-29T06:40:46;7.90;99.90
12926;DHT22;6529;50.566;9.774;2024-03-29T06:43:11;7.90;99.90
12926;DHT22;6529;50.566;9.774;2024-03-29T06:45:40;7.90;99.90
12926;DHT22;6529;50.566;9.774;2024-03-29T06:48:08;7.90;99.90
12926;DHT22;6529;50.566;9.774;2024-03-29T06:50:33;7.90;99.90
12926;DHT22;6529;50.566;9.774;2024-03-29T06:53:00;7.90;99.90
12926;DHT22;6529;50.566;9.774;2024-03-29T06:55:25;7.90;99.90
12926;DHT22;6529;50.566;9.774;2024-03-29T06:57:51;7.90;99.90
12926;DHT22;6529;50.566;9.774;2024-03-29T07:00:17;7.90;99.90
12926;DHT22;6529;50.566;9.774;2024-03-29T07:02:42;7.90;99.90
12926;DHT22;6529;50.566;9.774;2024-03-29T07:05:09;8.00;99.90
12926;DHT22;6529;50.566;9.774;2024-03-29T07:07:37;7.90;99.90
12926;DHT22;6529;50.566;9.774;2024-03-29T07:10:03;7.90;99.90
12926;DHT22;6529;50.566;9.774;2024-03-29T07:12:28;8.00;99.90
12926;DHT22;6529;50.566;9.774;2024-03-29T07:14:54;7.90;99.90
12926;DHT22;6529;50.566;9.774;2024-03-29T07:17:19;8.00;99.90
12926;DHT22;6529;50.566;9.774;2024-03-29T07:19:45;8.00;99.90
12926;DHT22;6529;50.566;9.774;2024-03-29T07:22:10;8.00;99.90
12926;DHT22;6529;50.566;9.774;2024-03-29T07:24:36;7.90;99.90
12926;DHT22;6529;50.566;9.774;2024-03-29T07:27:01;8.00;99.90
12926;DHT22;6529;50.566;9.774;2024-03-29T07:29:27;8.00;99.90
12926;DHT22;6529;50.566;9.774;2024-03-29T07:31:53;8.00;99.90
12926;DHT22;6529;50.566;9.774;2024-03-29T07:34:19;8.00;99.90
12926;DHT22;6529;50.566;9.774;2024-03-29T07:36:45;8.00;99.90
12926;DHT22;6529;50.566;9.774;2024-03-29T07:39:11;8.00;99.90
12926;DHT22;6529;50.566;9.774;2024-03-29T07:41:37;8.00;99.90
12926;DHT22;6529;50.566;9.774;2024-03-29T07:44:02;8.00;99.90
12926;DHT22;6529;50.566;9.774;2024-03-29T07:46:32;8.10;99.90
12926;DHT22;6529;50.566;9.774;2024-03-29T07:48:58;8.10;99.90
12926;DHT22;6529;50.566;9.774;2024-03-29T07:51:23;8.10;99.90
12926;DHT22;6529;50.566;9.774;2024-03-29T07:53:49;8.10;99.90
12926;DHT22;6529;50.566;9.774;2024-03-29T07:56:15;8.10;99.90
12926;DHT22;6529;50.566;9.774;2024-03-29T07:58:41;8.10;99.90
12926;DHT22;6529;50.566;9.774;2024-03-29T08:01:06;8.10;99.90
12926;DHT22;6529;50.566;9.774;2024-03-29T08:03:32;8.10;99.90
12926;DHT22;6529;50.566;9.774;2024-03-29T08:06:00;8.10;99.90
12926;DHT22;6529;50.566;9.774;2024-03-29T08:08:32;8.20;99.90
12926;DHT22;6529;50.566;9.774;2024-03-29T08:10:59;8.30;99.90
12926;DHT22;6529;50.566;9.774;2024-03-29T08:13:26;8.40;99.90
12926;DHT22;6529;50.566;9.774;2024-03-29T08:16:01;8.40;99.90
12926;DHT22;6529;50.566;9.774;2024-03-29T08:18:28;8.50;99.90
12926;DHT22;6529;50.566;9.774;2024-03-29T08:20:54;8.60;99.90
12926;DHT22;6529;50.566;9.774;2024-03-29T08:23:24;8.60;99.90
12926;DHT22;6529;50.566;9.774;2024-03-29T08:25:50;8.70;99.90
12926;DHT22;6529;50.566;9.774;2024-03-29T08:28:17;8.70;99.90
12926;DHT22;6529;50.566;9.774;2024-03-29T08:30:43;8.70;99.90
12926;DHT22;6529;50.566;9.774;2024-03-29T08:33:08;8.80;99.90
12926;DHT22;6529;50.566;9.774;2024-03-29T08:35:34;8.80;99.90
12926;DHT22;6529;50.566;9.774;2024-03-29T08:38:01;8.80;99.90
12926;DHT22;6529;50.566;9.774;2024-03-29T08:40:28;8.90;99.90
12926;DHT22;6529;50.566;9.774;2024-03-29T08:42:55;8.90;99.90
12926;DHT22;6529;50.566;9.774;2024-03-29T08:45:21;9.00;99.90
12926;DHT22;6529;50.566;9.774;2024-03-29T08:47:47;9.00;99.90
12926;DHT22;6529;50.566;9.774;2024-03-29T08:50:12;9.10;99.90
12926;DHT22;6529;50.566;9.774;2024-03-29T08:52:39;9.10;99.90
12926;DHT22;6529;50.566;9.774;2024-03-29T08:55:06;9.10;99.90
12926;DHT22;6529;50.566;9.774;2024-03-29T08:57:31;9.10;99.90
12926;DHT22;6529;50.566;9.774;2024-03-29T08:59:57;9.20;99.90
12926;DHT22;6529;50.566;9.774;2024-03-29T09:02:23;9.30;99.90
12926;DHT22;6529;50.566;9.774;2024-03-29T09:04:49;9.30;99.90
12926;DHT22;6529;50.566;9.774;2024-03-29T09:07:14;9.30;99.90
12926;DHT22;6529;50.566;9.774;2024-03-29T09:09:41;9.40;99.90
12926;DHT22;6529;50.566;9.774;2024-03-29T09:12:10;9.40;99.90
12926;DHT22;6529;50.566;9.774;2024-03-29T09:14:35;9.40;99.90
12926;DHT22;6529;50.566;9.774;2024-03-29T09:17:01;9.40;99.90
12926;DHT22;6529;50.566;9.774;2024-03-29T09:19:28;9.40;99.90
12926;DHT22;6529;50.566;9.774;2024-03-29T09:21:55;9.40;99.90
12926;DHT22;6529;50.566;9.774;2024-03-29T09:24:21;9.50;99.90
12926;DHT22;6529;50.566;9.774;2024-03-29T09:26:49;9.50;99.90
12926;DHT22;6529;50.566;9.774;2024-03-29T09:29:14;9.60;99.90
12926;DHT22;6529;50.566;9.774;2024-03-29T09:31:41;9.50;99.90
12926;DHT22;6529;50.566;9.774;2024-03-29T09:34:07;9.60;99.90
12926;DHT22;6529;50.566;9.774;2024-03-29T09:36:32;9.50;99.90
12926;DHT22;6529;50.566;9.774;2024-03-29T09:38:58;9.50;99.90
12926;DHT22;6529;50.566;9.774;2024-03-29T09:41:25;9.50;99.90
12926;DHT22;6529;50.566;9.774;2024-03-29T09:43:53;9.50;99.90
12926;DHT22;6529;50.566;9.774;2024-03-29T09:46:20;9.50;99.90
12926;DHT22;6529;50.566;9.774;2024-03-29T09:48:47;9.40;99.90
12926;DHT22;6529;50.566;9.774;2024-03-29T09:51:14;9.30;99.90
12926;DHT22;6529;50.566;9.774;2024-03-29T09:53:41;9.40;99.90
12926;DHT22;6529;50.566;9.774;2024-03-29T09:56:08;9.30;99.90
12926;DHT22;6529;50.566;9.774;2024-03-29T09:58:35;9.40;99.90
12926;DHT22;6529;50.566;9.774;2024-03-29T10:01:06;9.40;99.90
12926;DHT22;6529;50.566;9.774;2024-03-29T10:03:39;9.40;99.90
12926;DHT22;6529;50.566;9.774;2024-03-29T10:06:05;9.40;99.90
12926;DHT22;6529;50.566;9.774;2024-03-29T10:08:33;9.50;99.90
12926;DHT22;6529;50.566;9.774;2024-03-29T10:10:59;9.40;99.90
12926;DHT22;6529;50.566;9.774;2024-03-29T10:13:25;9.50;1.00
12926;DHT22;6529;50.566;9.774;2024-03-29T10:15:55;9.50;99.90
12926;DHT22;6529;50.566;9.774;2024-03-29T10:18:25;9.40;99.90
12926;DHT22;6529;50.566;9.774;2024-03-29T10:21:08;9.40;35.30
12926;DHT22;6529;50.566;9.774;2024-03-29T10:23:35;9.40;1.00
12926;DHT22;6529;50.566;9.774;2024-03-29T10:26:01;9.40;99.90
12926;DHT22;6529;50.566;9.774;2024-03-29T10:28:34;9.30;32.30
12926;DHT22;6529;50.566;9.774;2024-03-29T10:31:04;9.30;74.00
12926;DHT22;6529;50.566;9.774;2024-03-29T10:33:31;9.30;31.50
12926;DHT22;6529;50.566;9.774;2024-03-29T10:35:59;9.30;99.90
12926;DHT22;6529;50.566;9.774;2024-03-29T10:38:25;9.30;99.90
12926;DHT22;6529;50.566;9.774;2024-03-29T10:40:52;9.20;99.90
12926;DHT22;6529;50.566;9.774;2024-03-29T10:43:19;9.20;99.90
12926;DHT22;6529;50.566;9.774;2024-03-29T10:45:48;9.10;99.90
12926;DHT22;6529;50.566;9.774;2024-03-29T10:48:16;9.10;99.90
12926;DHT22;6529;50.566;9.774;2024-03-29T10:50:43;9.00;99.90
12926;DHT22;6529;50.566;9.774;2024-03-29T10:53:09;9.00;99.90
12926;DHT22;6529;50.566;9.774;2024-03-29T10:55:37;9.00;99.90
12926;DHT22;6529;50.566;9.774;2024-03-29T10:58:07;9.00;99.90
12926;DHT22;6529;50.566;9.774;2024-03-29T11:00:38;9.10;99.90
12926;DHT22;6529;50.566;9.774;2024-03-29T11:05:43;9.20;99.90
12926;DHT22;6529;50.566;9.774;2024-03-29T11:08:09;9.10;99.90
12926;DHT22;6529;50.566;9.774;2024-03-29T11:10:40;9.00;99.90
12926;DHT22;6529;50.566;9.774;2024-03-29T11:13:47;9.00;99.90
12926;DHT22;6529;50.566;9.774;2024-03-29T11:16:14;9.00;99.90
12926;DHT22;6529;50.566;9.774;2024-03-29T11:18:44;9.00;99.90
12926;DHT22;6529;50.566;9.774;2024-03-29T11:21:13;9.10;99.90
12926;DHT22;6529;50.566;9.774;2024-03-29T11:23:48;9.10;99.90
12926;DHT22;6529;50.566;9.774;2024-03-29T11:26:14;9.10;99.90
12926;DHT22;6529;50.566;9.774;2024-03-29T11:28:40;9.20;99.90
12926;DHT22;6529;50.566;9.774;2024-03-29T11:31:09;9.20;99.90
12926;DHT22;6529;50.566;9.774;2024-03-29T11:36:18;9.30;99.90
12926;DHT22;6529;50.566;9.774;2024-03-29T11:38:48;9.40;99.90
12926;DHT22;6529;50.566;9.774;2024-03-29T11:41:22;9.40;99.90
12926;DHT22;6529;50.566;9.774;2024-03-29T11:43:49;9.50;99.90
12926;DHT22;6529;50.566;9.774;2024-03-29T11:46:16;9.60;99.90
12926;DHT22;6529;50.566;9.774;2024-03-29T11:48:42;9.60;99.90
12926;DHT22;6529;50.566;9.774;2024-03-29T11:51:10;9.70;99.90
12926;DHT22;6529;50.566;9.774;2024-03-29T11:53:37;9.70;99.90
12926;DHT22;6529;50.566;9.774;2024-03-29T11:56:03;9.70;99.90
12926;DHT22;6529;50.566;9.774;2024-03-29T11:58:31;9.70;99.90
12926;DHT22;6529;50.566;9.774;2024-03-29T12:00:58;9.80;99.90
12926;DHT22;6529;50.566;9.774;2024-03-29T12:03:26;9.70;99.90
12926;DHT22;6529;50.566;9.774;2024-03-29T12:05:54;9.70;99.90
12926;DHT22;6529;50.566;9.774;2024-03-29T12:08:22;9.70;99.90
12926;DHT22;6529;50.566;9.774;2024-03-29T12:10:48;9.70;99.90
12926;DHT22;6529;50.566;9.774;2024-03-29T12:13:17;9.70;99.90
12926;DHT22;6529;50.566;9.774;2024-03-29T12:15:43;9.70;99.90
12926;DHT22;6529;50.566;9.774;2024-03-29T12:18:08;9.80;99.90
12926;DHT22;6529;50.566;9.774;2024-03-29T12:20:35;9.90;99.90
12926;DHT22;6529;50.566;9.774;2024-03-29T12:23:03;9.90;99.90
12926;DHT22;6529;50.566;9.774;2024-03-29T12:25:29;9.90;99.90
12926;DHT22;6529;50.566;9.774;2024-03-29T12:27:55;9.90;99.90
12926;DHT22;6529;50.566;9.774;2024-03-29T12:30:22;9.90;99.90
12926;DHT22;6529;50.566;9.774;2024-03-29T12:32:47;10.00;99.90
12926;DHT22;6529;50.566;9.774;2024-03-29T12:35:15;10.10;99.90
12926;DHT22;6529;50.566;9.774;2024-03-29T12:37:48;10.20;99.90
12926;DHT22;6529;50.566;9.774;2024-03-29T12:40:16;10.20;99.90
12926;DHT22;6529;50.566;9.774;2024-03-29T12:42:50;10.10;99.90
12926;DHT22;6529;50.566;9.774;2024-03-29T12:45:21;10.20;99.90
12926;DHT22;6529;50.566;9.774;2024-03-29T12:47:48;10.10;99.90
12926;DHT22;6529;50.566;9.774;2024-03-29T12:50:34;10.10;99.90
12926;DHT22;6529;50.566;9.774;2024-03-29T12:53:06;10.10;99.90
12926;DHT22;6529;50.566;9.774;2024-03-29T12:55:32;10.00;99.90
12926;DHT22;6529;50.566;9.774;2024-03-29T12:58:02;10.00;99.90
12926;DHT22;6529;50.566;9.774;2024-03-29T13:00:30;10.00;99.90
12926;DHT22;6529;50.566;9.774;2024-03-29T13:02:56;10.00;99.90
12926;DHT22;6529;50.566;9.774;2024-03-29T13:05:21;9.90;99.90
12926;DHT22;6529;50.566;9.774;2024-03-29T13:07:47;9.90;99.90
12926;DHT22;6529;50.566;9.774;2024-03-29T13:10:13;9.80;99.90
12926;DHT22;6529;50.566;9.774;2024-03-29T13:12:40;9.80;99.90
12926;DHT22;6529;50.566;9.774;2024-03-29T13:15:21;9.80;99.90
12926;DHT22;6529;50.566;9.774;2024-03-29T13:17:49;9.80;99.90
12926;DHT22;6529;50.566;9.774;2024-03-29T13:20:16;9.90;99.90
12926;DHT22;6529;50.566;9.774;2024-03-29T13:22:46;9.90;99.90
12926;DHT22;6529;50.566;9.774;2024-03-29T13:25:12;9.90;99.90
12926;DHT22;6529;50.566;9.774;2024-03-29T13:27:39;9.90;99.90
12926;DHT22;6529;50.566;9.774;2024-03-29T13:30:06;9.90;99.90
12926;DHT22;6529;50.566;9.774;2024-03-29T13:32:32;9.90;99.90
12926;DHT22;6529;50.566;9.774;2024-03-29T13:34:59;9.80;99.90
12926;DHT22;6529;50.566;9.774;2024-03-29T13:37:25;9.90;99.90
12926;DHT22;6529;50.566;9.774;2024-03-29T13:39:55;9.80;99.90
12926;DHT22;6529;50.566;9.774;2024-03-29T13:42:20;9.80;99.90
12926;DHT22;6529;50.566;9.774;2024-03-29T13:44:49;9.80;99.90
12926;DHT22;6529;50.566;9.774;2024-03-29T13:47:14;9.80;99.90
12926;DHT22;6529;50.566;9.774;2024-03-29T13:49:41;9.80;99.90
12926;DHT22;6529;50.566;9.774;2024-03-29T13:52:11;9.90;99.90
12926;DHT22;6529;50.566;9.774;2024-03-29T13:54:37;9.80;99.90
12926;DHT22;6529;50.566;9.774;2024-03-29T13:57:03;9.80;99.90
12926;DHT22;6529;50.566;9.774;2024-03-29T13:59:32;9.80;99.90
12926;DHT22;6529;50.566;9.774;2024-03-29T14:01:58;9.70;99.90
12926;DHT22;6529;50.566;9.774;2024-03-29T14:04:24;9.70;99.90
12926;DHT22;6529;50.566;9.774;2024-03-29T14:06:49;9.70;99.90
12926;DHT22;6529;50.566;9.774;2024-03-29T14:09:16;9.70;99.90
12926;DHT22;6529;50.566;9.774;2024-03-29T14:11:43;9.80;99.90
12926;DHT22;6529;50.566;9.774;2024-03-29T14:14:09;9.70;99.90
12926;DHT22;6529;50.566;9.774;2024-03-29T14:16:35;9.80;99.90
12926;DHT22;6529;50.566;9.774;2024-03-29T14:19:02;9.80;99.90
12926;DHT22;6529;50.566;9.774;2024-03-29T14:21:28;9.80;99.90
12926;DHT22;6529;50.566;9.774;2024-03-29T14:23:54;9.80;99.90
12926;DHT22;6529;50.566;9.774;2024-03-29T14:26:20;9.80;99.90
12926;DHT22;6529;50.566;9.774;2024-03-29T14:28:46;9.80;99.90
12926;DHT22;6529;50.566;9.774;2024-03-29T14:31:11;9.90;99.90
12926;DHT22;6529;50.566;9.774;2024-03-29T14:33:37;9.90;99.90
12926;DHT22;6529;50.566;9.774;2024-03-29T14:36:03;9.90;99.90
12926;DHT22;6529;50.566;9.774;2024-03-29T14:38:29;9.90;99.90
12926;DHT22;6529;50.566;9.774;2024-03-29T14:40:55;9.90;99.90
12926;DHT22;6529;50.566;9.774;2024-03-29T14:43:21;9.90;99.90
12926;DHT22;6529;50.566;9.774;2024-03-29T14:45:46;9.90;99.90
12926;DHT22;6529;50.566;9.774;2024-03-29T14:48:15;10.00;99.90
12926;DHT22;6529;50.566;9.774;2024-03-29T14:50:42;10.00;99.90
12926;DHT22;6529;50.566;9.774;2024-03-29T14:53:07;10.00;99.90
12926;DHT22;6529;50.566;9.774;2024-03-29T14:55:33;10.00;99.90
12926;DHT22;6529;50.566;9.774;2024-03-29T14:57:58;10.10;99.90
12926;DHT22;6529;50.566;9.774;2024-03-29T15:00:24;10.10;99.90
12926;DHT22;6529;50.566;9.774;2024-03-29T15:02:50;10.10;99.90
12926;DHT22;6529;50.566;9.774;2024-03-29T15:05:16;10.10;99.90
12926;DHT22;6529;50.566;9.774;2024-03-29T15:07:42;10.20;99.90
12926;DHT22;6529;50.566;9.774;2024-03-29T15:10:08;10.20;99.90
12926;DHT22;6529;50.566;9.774;2024-03-29T15:12:36;10.20;99.90
12926;DHT22;6529;50.566;9.774;2024-03-29T15:15:02;10.30;99.90
12926;DHT22;6529;50.566;9.774;2024-03-29T15:17:28;10.30;99.90
12926;DHT22;6529;50.566;9.774;2024-03-29T15:19:53;10.20;99.90
12926;DHT22;6529;50.566;9.774;2024-03-29T15:22:19;10.20;99.90
12926;DHT22;6529;50.566;9.774;2024-03-29T15:24:44;10.30;99.90
12926;DHT22;6529;50.566;9.774;2024-03-29T15:27:10;10.30;99.90
12926;DHT22;6529;50.566;9.774;2024-03-29T15:29:54;10.30;99.90
12926;DHT22;6529;50.566;9.774;2024-03-29T15:32:20;10.30;99.90
12926;DHT22;6529;50.566;9.774;2024-03-29T15:34:46;10.30;99.90
12926;DHT22;6529;50.566;9.774;2024-03-29T15:37:11;10.30;99.90
12926;DHT22;6529;50.566;9.774;2024-03-29T15:39:37;10.30;99.90
12926;DHT22;6529;50.566;9.774;2024-03-29T15:42:02;10.30;99.90
12926;DHT22;6529;50.566;9.774;2024-03-29T15:44:28;10.30;99.90
12926;DHT22;6529;50.566;9.774;2024-03-29T15:46:54;10.30;99.90
12926;DHT22;6529;50.566;9.774;2024-03-29T15:49:19;10.30;99.90
12926;DHT22;6529;50.566;9.774;2024-03-29T15:51:45;10.30;99.90
12926;DHT22;6529;50.566;9.774;2024-03-29T15:54:10;10.30;99.90
12926;DHT22;6529;50.566;9.774;2024-03-29T15:56:41;10.30;99.90
12926;DHT22;6529;50.566;9.774;2024-03-29T15:59:07;10.30;99.90
12926;DHT22;6529;50.566;9.774;2024-03-29T16:01:35;10.20;99.90
12926;DHT22;6529;50.566;9.774;2024-03-29T16:04:00;10.20;99.90
12926;DHT22;6529;50.566;9.774;2024-03-29T16:06:26;10.20;99.90